createdAt,value
2023-04-30T00:00:11.248Z,100969.31
2023-04-30T00:02:39.674Z,100967.59
2023-04-30T00:05:08.778Z,100960.66
2023-04-30T00:07:36.765Z,100958.09
2023-04-30T00:10:05.950Z,100959.88
2023-04-30T00:12:33.748Z,100958.09
2023-04-30T00:15:01.811Z,100958.09
2023-04-30T00:17:29.777Z,100958.97
2023-04-30T00:19:57.354Z,100967.56
2023-04-30T00:22:25.242Z,100964.94
2023-04-30T00:24:53.251Z,100970.97
2023-04-30T00:27:21.138Z,100969.25
2023-04-30T00:29:48.997Z,100977.09
2023-04-30T00:32:17.010Z,100968.50
2023-04-30T00:34:44.899Z,100971.06
2023-04-30T00:37:12.869Z,100969.31
2023-04-30T00:39:40.470Z,100964.94
2023-04-30T00:42:10.985Z,100964.91
2023-04-30T00:44:38.775Z,100966.72
2023-04-30T00:47:06.312Z,100958.03
2023-04-30T00:49:33.760Z,100956.19
2023-04-30T00:52:01.446Z,100956.06
2023-04-30T00:54:29.604Z,100945.53
2023-04-30T00:56:57.529Z,100934.19
2023-04-30T00:59:26.152Z,100946.06
2023-04-30T01:01:53.781Z,100943.38
2023-04-30T01:04:21.768Z,100934.59
2023-04-30T01:06:49.229Z,100937.97
2023-04-30T01:09:18.529Z,100930.19
2023-04-30T01:12:09.808Z,100931.88
2023-04-30T01:15:09.678Z,100927.56
2023-04-30T01:17:45.623Z,100925.81
2023-04-30T01:20:13.588Z,100934.44
2023-04-30T01:22:49.754Z,100934.25
2023-04-30T01:25:40.107Z,100944.56
2023-04-30T01:28:11.085Z,100937.75
2023-04-30T01:30:40.796Z,100939.47
2023-04-30T01:33:08.593Z,100942.84
2023-04-30T01:35:58.460Z,100954.13
2023-04-30T01:38:43.984Z,100942.13
2023-04-30T01:41:34.878Z,100958.34
2023-04-30T01:44:13.492Z,100953.13
2023-04-30T01:46:47.402Z,100953.84
2023-04-30T01:49:26.540Z,100951.28
2023-04-30T01:51:57.375Z,100939.94
2023-04-30T01:54:35.240Z,100952.94
2023-04-30T01:57:04.652Z,100941.72
2023-04-30T01:59:39.181Z,100937.44
2023-04-30T02:02:06.840Z,100940.19
2023-04-30T02:04:34.416Z,100932.47
2023-04-30T02:07:01.954Z,100933.19
2023-04-30T02:09:29.860Z,100927.13
2023-04-30T02:11:57.968Z,100936.69
2023-04-30T02:14:25.854Z,100936.75
2023-04-30T02:16:53.811Z,100931.56
2023-04-30T02:19:21.684Z,100936.69
2023-04-30T02:21:49.227Z,100928.91
2023-04-30T02:24:16.764Z,100928.97
2023-04-30T02:26:44.931Z,100926.41
2023-04-30T02:29:12.873Z,100922.91
2023-04-30T02:31:40.442Z,100918.47
2023-04-30T02:34:09.895Z,100927.91
2023-04-30T02:36:38.022Z,100920.97
2023-04-30T02:39:06.287Z,100928.81
2023-04-30T02:41:33.831Z,100926.16
2023-04-30T02:44:01.352Z,100921.84
2023-04-30T02:46:29.265Z,100922.53
2023-04-30T02:48:56.701Z,100924.16
2023-04-30T02:51:24.561Z,100920.66
2023-04-30T02:53:52.109Z,100919.06
2023-04-30T02:56:20.010Z,100925.06
2023-04-30T02:58:47.793Z,100915.38
2023-04-30T03:01:15.591Z,100920.66
2023-04-30T03:03:43.723Z,100914.66
2023-04-30T03:06:11.701Z,100917.25
2023-04-30T03:08:39.575Z,100907.66
2023-04-30T03:11:08.232Z,100908.44
2023-04-30T03:13:36.078Z,100905.84
2023-04-30T03:16:05.118Z,100900.63
2023-04-30T03:18:33.089Z,100904.84
2023-04-30T03:21:01.306Z,100903.97
2023-04-30T03:23:29.231Z,100902.28
2023-04-30T03:25:57.488Z,100906.63
2023-04-30T03:28:25.463Z,100909.97
2023-04-30T03:30:53.482Z,100911.63
2023-04-30T03:33:22.152Z,100911.72
2023-04-30T03:35:50.735Z,100909.31
2023-04-30T03:38:18.616Z,100911.09
2023-04-30T03:40:46.190Z,100911.03
2023-04-30T03:43:13.975Z,100914.47
2023-04-30T03:45:42.321Z,100910.09
2023-04-30T03:48:09.764Z,100916.19
2023-04-30T03:50:37.411Z,100911.91
2023-04-30T03:53:05.356Z,100907.47
2023-04-30T03:55:33.162Z,100917.91
2023-04-30T03:58:00.735Z,100909.13
2023-04-30T04:00:28.247Z,100906.63
2023-04-30T04:02:55.381Z,100909.13
2023-04-30T04:05:23.210Z,100910.81
2023-04-30T04:07:50.855Z,100922.06
2023-04-30T04:10:18.828Z,100921.28
2023-04-30T04:12:46.582Z,100916.16
2023-04-30T04:15:13.665Z,100916.00
2023-04-30T04:17:42.146Z,100914.31
2023-04-30T04:20:14.126Z,100922.19
2023-04-30T04:22:42.103Z,100919.50
2023-04-30T04:25:11.324Z,100915.28
2023-04-30T04:27:39.274Z,100927.44
2023-04-30T04:30:09.769Z,100926.53
2023-04-30T04:32:48.369Z,100927.44
2023-04-30T04:35:16.375Z,100934.34
2023-04-30T04:37:43.856Z,100939.59
2023-04-30T04:40:12.548Z,100944.06
2023-04-30T04:42:40.129Z,100950.97
2023-04-30T04:45:08.775Z,100962.22
2023-04-30T04:47:36.913Z,100954.53
2023-04-30T04:50:04.945Z,100949.44
2023-04-30T04:52:32.639Z,100950.34
2023-04-30T04:55:00.584Z,100955.66
2023-04-30T04:57:28.533Z,100954.75
2023-04-30T04:59:57.501Z,100957.34
2023-04-30T05:02:25.539Z,100957.34
2023-04-30T05:04:53.391Z,100955.66
2023-04-30T05:07:21.332Z,100963.50
2023-04-30T05:09:49.165Z,100961.00
2023-04-30T05:12:16.595Z,100963.72
2023-04-30T05:14:44.896Z,100969.00
2023-04-30T05:17:12.334Z,100964.88
2023-04-30T05:19:40.237Z,100977.03
2023-04-30T05:22:07.791Z,100973.75
2023-04-30T05:24:35.700Z,100976.53
2023-04-30T05:27:06.053Z,100979.22
2023-04-30T05:29:33.498Z,100979.34
2023-04-30T05:32:02.058Z,100975.13
2023-04-30T05:34:29.597Z,100975.16
2023-04-30T05:37:01.593Z,100976.16
2023-04-30T05:39:29.566Z,100973.63
2023-04-30T05:41:57.314Z,100979.78
2023-04-30T05:44:25.399Z,100980.78
2023-04-30T05:46:52.928Z,100984.28
2023-04-30T05:49:20.769Z,100980.91
2023-04-30T05:51:48.653Z,100980.94
2023-04-30T05:54:16.157Z,100982.69
2023-04-30T05:56:43.944Z,100991.44
2023-04-30T05:59:11.658Z,100987.19
2023-04-30T06:01:39.700Z,100993.28
2023-04-30T06:04:09.304Z,100985.50
2023-04-30T06:06:36.979Z,100996.78
2023-04-30T06:09:05.226Z,100993.41
2023-04-30T06:11:32.666Z,101004.69
2023-04-30T06:14:00.606Z,100994.31
2023-04-30T06:16:28.137Z,100997.78
2023-04-30T06:18:55.701Z,101003.00
2023-04-30T06:21:26.044Z,100998.69
2023-04-30T06:23:53.547Z,101002.16
2023-04-30T06:26:21.147Z,100999.53
2023-04-30T06:28:48.691Z,101000.44
2023-04-30T06:31:17.310Z,100999.63
2023-04-30T06:33:44.882Z,101005.72
2023-04-30T06:36:12.263Z,101004.03
2023-04-30T06:38:40.098Z,101003.19
2023-04-30T06:41:09.148Z,101011.03
2023-04-30T06:43:37.018Z,101006.69
2023-04-30T06:46:06.653Z,101005.00
2023-04-30T06:48:34.569Z,101004.22
2023-04-30T06:51:02.899Z,101007.75
2023-04-30T06:53:30.754Z,101008.66
2023-04-30T06:55:58.711Z,101009.53
2023-04-30T06:58:26.835Z,101011.31
2023-04-30T07:00:54.397Z,101011.31
2023-04-30T07:03:22.151Z,101018.31
2023-04-30T07:05:50.461Z,101017.44
2023-04-30T07:08:24.483Z,101023.56
2023-04-30T07:10:52.566Z,101021.78
2023-04-30T07:13:19.973Z,101031.31
2023-04-30T07:15:47.481Z,101030.47
2023-04-30T07:18:16.484Z,101035.72
2023-04-30T07:20:44.340Z,101036.63
2023-04-30T07:23:12.243Z,101034.88
2023-04-30T07:25:46.266Z,101027.09
2023-04-30T07:28:13.888Z,101033.19
2023-04-30T07:30:41.777Z,101028.03
2023-04-30T07:33:09.701Z,101028.91
2023-04-30T07:35:37.452Z,101034.16
2023-04-30T07:38:05.956Z,101035.03
2023-04-30T07:40:36.305Z,101037.66
2023-04-30T07:43:05.160Z,101039.41
2023-04-30T07:45:33.937Z,101042.00
2023-04-30T07:48:01.566Z,101032.44
2023-04-30T07:50:33.734Z,101035.03
2023-04-30T07:53:01.922Z,101030.69
2023-04-30T07:55:29.439Z,101037.63
2023-04-30T07:57:56.964Z,101036.75
2023-04-30T08:00:24.217Z,101041.13
2023-04-30T08:02:52.275Z,101039.34
2023-04-30T08:05:20.473Z,101037.63
2023-04-30T08:07:48.435Z,101041.97
2023-04-30T08:10:16.476Z,101037.59
2023-04-30T08:12:44.357Z,101036.75
2023-04-30T08:15:12.226Z,101042.81
2023-04-30T08:17:40.173Z,101042.84
2023-04-30T08:20:10.690Z,101044.56
2023-04-30T08:22:38.559Z,101041.94
2023-04-30T08:25:07.593Z,101043.72
2023-04-30T08:27:35.418Z,101041.06
2023-04-30T08:30:03.752Z,101035.84
2023-04-30T08:32:31.632Z,101042.78
2023-04-30T08:34:59.481Z,101041.94
2023-04-30T08:37:27.381Z,101040.19
2023-04-30T08:39:55.561Z,101036.66
2023-04-30T08:42:25.840Z,101042.78
2023-04-30T08:44:53.366Z,101041.00
2023-04-30T08:47:21.811Z,101040.09
2023-04-30T08:49:48.577Z,101038.28
2023-04-30T08:52:16.565Z,101047.84
2023-04-30T08:54:44.827Z,101044.31
2023-04-30T08:57:12.680Z,101047.69
2023-04-30T08:59:40.602Z,101043.28
2023-04-30T09:02:10.171Z,101046.66
2023-04-30T09:04:37.965Z,101046.63
2023-04-30T09:07:06.869Z,101048.25
2023-04-30T09:09:39.426Z,101044.75
2023-04-30T09:12:17.799Z,101044.75
2023-04-30T09:15:04.971Z,101039.47
2023-04-30T09:17:33.019Z,101049.91
2023-04-30T09:20:12.580Z,101041.13
2023-04-30T09:22:41.501Z,101040.22
2023-04-30T09:25:08.804Z,101038.41
2023-04-30T09:27:36.536Z,101034.88
2023-04-30T09:30:04.888Z,101034.09
2023-04-30T09:32:32.950Z,101035.78
2023-04-30T09:35:00.626Z,101039.25
2023-04-30T09:37:38.357Z,101033.97
2023-04-30T09:40:05.502Z,101027.75
2023-04-30T09:42:33.692Z,101028.66
2023-04-30T09:45:01.731Z,101025.16
2023-04-30T09:47:32.197Z,101026.03
2023-04-30T09:50:00.648Z,101025.91
2023-04-30T09:52:27.802Z,101025.78
2023-04-30T09:54:55.391Z,101018.75
2023-04-30T09:57:24.005Z,101019.47
2023-04-30T09:59:51.705Z,101021.16
2023-04-30T10:02:21.310Z,101021.16
2023-04-30T10:04:50.019Z,101032.34
2023-04-30T10:07:20.116Z,101033.03
2023-04-30T10:10:03.255Z,101014.66
2023-04-30T10:12:52.456Z,101017.38
2023-04-30T10:15:30.831Z,101026.94
2023-04-30T10:18:46.321Z,101021.56
2023-04-30T10:21:14.211Z,101015.34
2023-04-30T10:23:43.812Z,101015.34
2023-04-30T10:26:16.372Z,101022.34
2023-04-30T10:28:43.950Z,101015.22
2023-04-30T10:31:11.209Z,101005.47
2023-04-30T10:33:58.717Z,101003.59
2023-04-30T10:37:08.455Z,101001.91
2023-04-30T10:39:36.178Z,101009.59
2023-04-30T10:42:03.876Z,100999.97
2023-04-30T10:44:38.401Z,100997.28
2023-04-30T10:47:07.207Z,100992.75
2023-04-30T10:49:35.131Z,100998.81
2023-04-30T10:52:03.699Z,100990.94
2023-04-30T10:54:37.624Z,100989.84
2023-04-30T10:57:14.301Z,100988.81
2023-04-30T11:00:08.483Z,100983.34
2023-04-30T11:02:44.149Z,100986.94
2023-04-30T11:05:15.626Z,100984.31
2023-04-30T11:07:50.548Z,100983.47
2023-04-30T11:10:21.216Z,100974.50
2023-04-30T11:12:49.282Z,100969.13
2023-04-30T11:15:18.768Z,100963.13
2023-04-30T11:17:46.054Z,100976.06
2023-04-30T11:20:13.956Z,100975.09
2023-04-30T11:22:41.701Z,100974.97
2023-04-30T11:25:16.078Z,100965.44
2023-04-30T11:27:47.681Z,100974.88
2023-04-30T11:30:16.026Z,100972.78
2023-04-30T11:32:48.083Z,100976.97
2023-04-30T11:35:18.799Z,100971.56
2023-04-30T11:37:46.518Z,100977.59
2023-04-30T11:40:14.441Z,100971.03
2023-04-30T11:42:47.021Z,100972.38
2023-04-30T11:45:17.581Z,100968.13
2023-04-30T11:47:56.836Z,100972.88
2023-04-30T11:50:30.286Z,100959.81
2023-04-30T11:52:57.649Z,100954.34
2023-04-30T11:55:25.764Z,100966.13
2023-04-30T11:57:58.782Z,100965.97
2023-04-30T12:00:30.210Z,100969.22
2023-04-30T12:02:57.905Z,100965.88
2023-04-30T12:05:25.889Z,100964.56
2023-04-30T12:07:57.697Z,100966.41
2023-04-30T12:10:28.824Z,100972.19
2023-04-30T12:12:56.564Z,100968.28
2023-04-30T12:15:28.068Z,100961.53
2023-04-30T12:18:00.052Z,100958.59
2023-04-30T12:20:28.996Z,100961.59
2023-04-30T12:22:56.168Z,100956.22
2023-04-30T12:25:23.561Z,100965.06
2023-04-30T12:27:53.742Z,100949.00
2023-04-30T12:30:27.574Z,100962.59
2023-04-30T12:32:54.868Z,100948.59
2023-04-30T12:35:23.636Z,100943.34
2023-04-30T12:37:52.709Z,100942.13
2023-04-30T12:40:27.107Z,100933.16
2023-04-30T12:43:08.461Z,100938.88
2023-04-30T12:45:48.870Z,100947.47
2023-04-30T12:48:16.007Z,100937.78
2023-04-30T12:50:43.264Z,100942.53
2023-04-30T12:53:10.572Z,100936.66
2023-04-30T12:55:39.451Z,100932.53
2023-04-30T12:58:11.421Z,100938.34
2023-04-30T13:00:51.099Z,100931.25
2023-04-30T13:03:20.042Z,100934.63
2023-04-30T13:05:48.775Z,100923.81
2023-04-30T13:08:16.817Z,100927.63
2023-04-30T13:10:44.557Z,100918.94
2023-04-30T13:13:12.505Z,100923.69
2023-04-30T13:15:40.801Z,100917.16
2023-04-30T13:18:12.600Z,100913.56
2023-04-30T13:20:40.397Z,100918.88
2023-04-30T13:23:08.483Z,100913.91
2023-04-30T13:25:36.134Z,100912.53
2023-04-30T13:28:04.051Z,100910.59
2023-04-30T13:30:31.935Z,100905.47
2023-04-30T13:32:59.860Z,100916.25
2023-04-30T13:35:27.047Z,100906.47
2023-04-30T13:37:55.060Z,100908.97
2023-04-30T13:40:22.989Z,100902.53
2023-04-30T13:42:50.520Z,100910.41
2023-04-30T13:45:18.291Z,100907.00
2023-04-30T13:47:46.207Z,100909.69
2023-04-30T13:50:13.643Z,100905.28
2023-04-30T13:52:41.165Z,100910.91
2023-04-30T13:55:29.764Z,100906.56
2023-04-30T13:57:58.563Z,100904.88
2023-04-30T14:00:26.656Z,100906.91
2023-04-30T14:02:54.718Z,100904.25
2023-04-30T14:05:22.842Z,100905.53
2023-04-30T14:07:50.379Z,100905.94
2023-04-30T14:10:18.473Z,100900.00
2023-04-30T14:12:46.158Z,100899.13
2023-04-30T14:15:13.650Z,100905.97
2023-04-30T14:17:41.480Z,100904.78
2023-04-30T14:20:13.816Z,100903.28
2023-04-30T14:22:41.716Z,100900.63
2023-04-30T14:25:11.429Z,100899.28
2023-04-30T14:27:39.498Z,100883.88
2023-04-30T14:30:09.432Z,100893.66
2023-04-30T14:32:37.681Z,100885.25
2023-04-30T14:35:08.180Z,100891.28
2023-04-30T14:37:35.948Z,100883.91
2023-04-30T14:40:06.727Z,100886.47
2023-04-30T14:42:33.951Z,100879.28
2023-04-30T14:45:01.460Z,100885.91
2023-04-30T14:47:29.265Z,100883.47
2023-04-30T14:49:59.047Z,100889.94
2023-04-30T14:52:27.184Z,100881.69
2023-04-30T14:54:54.657Z,100882.84
2023-04-30T14:57:23.850Z,100883.81
2023-04-30T14:59:52.739Z,100872.16
2023-04-30T15:02:21.886Z,100877.13
2023-04-30T15:04:49.686Z,100879.47
2023-04-30T15:07:17.626Z,100877.03
2023-04-30T15:09:46.722Z,100894.50
2023-04-30T15:12:15.209Z,100897.13
2023-04-30T15:14:43.038Z,100887.56
2023-04-30T15:17:11.761Z,100889.09
2023-04-30T15:19:39.161Z,100883.44
2023-04-30T15:22:10.107Z,100891.06
2023-04-30T15:24:38.268Z,100880.25
2023-04-30T15:27:06.053Z,100881.63
2023-04-30T15:29:33.818Z,100879.00
2023-04-30T15:32:04.604Z,100881.25
2023-04-30T15:34:32.299Z,100884.25
2023-04-30T15:36:59.924Z,100893.13
2023-04-30T15:39:27.360Z,100889.66
2023-04-30T15:41:54.813Z,100884.34
2023-04-30T15:44:22.700Z,100889.31
2023-04-30T15:46:51.695Z,100889.63
2023-04-30T15:49:19.401Z,100886.78
2023-04-30T15:51:47.257Z,100885.06
2023-04-30T15:54:14.955Z,100889.41
2023-04-30T15:56:42.360Z,100887.50
2023-04-30T15:59:10.223Z,100886.28
2023-04-30T16:01:41.745Z,100881.94
2023-04-30T16:04:09.771Z,100876.31
2023-04-30T16:06:37.112Z,100877.84
2023-04-30T16:09:07.599Z,100886.25
2023-04-30T16:11:36.164Z,100887.94
2023-04-30T16:14:03.621Z,100883.00
2023-04-30T16:16:31.281Z,100886.03
2023-04-30T16:18:58.690Z,100888.03
2023-04-30T16:21:27.290Z,100886.75
2023-04-30T16:23:55.150Z,100889.84
2023-04-30T16:26:23.378Z,100891.06
2023-04-30T16:28:51.404Z,100896.44
2023-04-30T16:31:22.783Z,100890.47
2023-04-30T16:33:50.773Z,100879.13
2023-04-30T16:36:18.280Z,100878.28
2023-04-30T16:38:46.768Z,100881.03
2023-04-30T16:41:40.666Z,100880.31
2023-04-30T16:44:08.196Z,100879.50
2023-04-30T16:46:36.278Z,100874.38
2023-04-30T16:49:04.126Z,100874.53
2023-04-30T16:51:32.941Z,100867.69
2023-04-30T16:54:00.799Z,100868.78
2023-04-30T16:56:28.928Z,100865.41
2023-04-30T16:58:56.519Z,100868.22
2023-04-30T17:01:24.127Z,100873.38
2023-04-30T17:03:52.074Z,100871.09
2023-04-30T17:06:19.655Z,100869.50
2023-04-30T17:08:47.416Z,100874.84
2023-04-30T17:11:19.209Z,100877.66
2023-04-30T17:13:46.790Z,100877.00
2023-04-30T17:16:14.649Z,100871.00
2023-04-30T17:18:42.624Z,100872.72
2023-04-30T17:21:10.772Z,100879.81
2023-04-30T17:23:38.325Z,100877.28
2023-04-30T17:26:06.384Z,100872.97
2023-04-30T17:28:34.236Z,100880.00
2023-04-30T17:31:07.178Z,100875.69
2023-04-30T17:33:35.394Z,100869.53
2023-04-30T17:36:03.045Z,100867.00
2023-04-30T17:38:30.584Z,100877.59
2023-04-30T17:40:58.189Z,100870.69
2023-04-30T17:43:25.942Z,100875.06
2023-04-30T17:45:53.822Z,100875.06
2023-04-30T17:48:21.526Z,100872.53
2023-04-30T17:50:50.579Z,100873.47
2023-04-30T17:53:18.015Z,100877.94
2023-04-30T17:55:45.654Z,100876.22
2023-04-30T17:58:13.104Z,100878.00
2023-04-30T18:00:42.704Z,100884.97
2023-04-30T18:03:11.146Z,100878.84
2023-04-30T18:05:39.619Z,100882.34
2023-04-30T18:08:07.564Z,100881.47
2023-04-30T18:10:37.288Z,100885.91
2023-04-30T18:13:04.832Z,100885.22
2023-04-30T18:15:33.265Z,100885.31
2023-04-30T18:18:01.022Z,100889.75
2023-04-30T18:20:28.665Z,100880.22
2023-04-30T18:22:56.744Z,100885.50
2023-04-30T18:25:23.764Z,100891.66
2023-04-30T18:27:51.499Z,100889.91
2023-04-30T18:30:18.995Z,100890.81
2023-04-30T18:32:46.865Z,100892.63
2023-04-30T18:35:14.905Z,100890.94
2023-04-30T18:37:42.880Z,100889.22
2023-04-30T18:40:12.034Z,100895.38
2023-04-30T18:42:39.568Z,100900.63
2023-04-30T18:45:09.961Z,100906.75
2023-04-30T18:47:37.634Z,100910.28
2023-04-30T18:50:10.443Z,100903.41
2023-04-30T18:52:38.135Z,100917.34
2023-04-30T18:55:07.729Z,100908.66
2023-04-30T18:57:35.766Z,100916.53
2023-04-30T19:00:04.139Z,100916.53
2023-04-30T19:02:32.633Z,100911.31
2023-04-30T19:05:01.544Z,100926.13
2023-04-30T19:07:29.432Z,100920.06
2023-04-30T19:09:57.122Z,100918.34
2023-04-30T19:12:24.877Z,100923.59
2023-04-30T19:14:53.042Z,100919.25
2023-04-30T19:17:21.879Z,100931.44
2023-04-30T19:19:50.305Z,100926.22
2023-04-30T19:22:19.495Z,100921.88
2023-04-30T19:24:47.319Z,100927.13
2023-04-30T19:27:15.359Z,100930.59
2023-04-30T19:29:43.945Z,100933.25
2023-04-30T19:32:11.730Z,100923.66
2023-04-30T19:34:39.171Z,100927.16
2023-04-30T19:37:07.160Z,100926.28
2023-04-30T19:39:36.631Z,100932.41
2023-04-30T19:42:04.324Z,100928.03
2023-04-30T19:44:31.764Z,100931.53
2023-04-30T19:46:59.224Z,100935.91
2023-04-30T19:49:27.305Z,100929.81
2023-04-30T19:51:55.053Z,100929.81
2023-04-30T19:54:22.631Z,100937.63
2023-04-30T19:56:52.925Z,100936.78
2023-04-30T19:59:21.062Z,100941.13
2023-04-30T20:01:48.765Z,100943.75
2023-04-30T20:04:16.637Z,100938.50
2023-04-30T20:06:44.717Z,100930.72
2023-04-30T20:09:12.519Z,100939.38
2023-04-30T20:11:40.388Z,100937.66
2023-04-30T20:14:08.274Z,100936.78
2023-04-30T20:16:36.054Z,100935.94
2023-04-30T20:19:04.347Z,100943.75
2023-04-30T20:21:32.111Z,100940.25
2023-04-30T20:24:00.343Z,100947.22
2023-04-30T20:26:50.321Z,100944.63
2023-04-30T20:29:20.683Z,100942.88
2023-04-30T20:31:48.194Z,100947.25
2023-04-30T20:34:15.973Z,100942.03
2023-04-30T20:36:43.878Z,100946.38
2023-04-30T20:39:12.147Z,100947.22
2023-04-30T20:41:41.207Z,100951.53
2023-04-30T20:44:08.622Z,100950.69
2023-04-30T20:46:36.985Z,100948.06
2023-04-30T20:49:05.211Z,100957.63
2023-04-30T20:51:33.076Z,100959.34
2023-04-30T20:54:00.477Z,100958.50
2023-04-30T20:56:28.302Z,100950.66
2023-04-30T20:58:55.996Z,100952.41
2023-04-30T21:01:24.331Z,100956.75
2023-04-30T21:03:51.900Z,100951.50
2023-04-30T21:06:19.677Z,100954.13
2023-04-30T21:09:07.156Z,100948.88
2023-04-30T21:11:35.440Z,100952.38
2023-04-30T21:14:03.339Z,100955.84
2023-04-30T21:16:31.358Z,100951.50
2023-04-30T21:18:59.662Z,100948.03
2023-04-30T21:21:27.528Z,100950.63
2023-04-30T21:23:55.504Z,100948.03
2023-04-30T21:26:23.573Z,100943.69
2023-04-30T21:28:52.980Z,100948.88
2023-04-30T21:31:20.557Z,100950.63
2023-04-30T21:33:48.184Z,100947.13
2023-04-30T21:36:16.630Z,100948.88
2023-04-30T21:38:44.531Z,100948.00
2023-04-30T21:41:15.787Z,100948.00
2023-04-30T21:43:43.390Z,100948.00
2023-04-30T21:46:11.135Z,100942.75
2023-04-30T21:48:39.377Z,100939.28
2023-04-30T21:51:15.108Z,100947.06
2023-04-30T21:53:42.925Z,100947.91
2023-04-30T21:56:10.492Z,100934.91
2023-04-30T21:58:38.908Z,100941.84
2023-04-30T22:01:09.882Z,100947.94
2023-04-30T22:03:37.775Z,100947.06
2023-04-30T22:06:06.101Z,100947.06
2023-04-30T22:08:33.683Z,100941.00
2023-04-30T22:11:01.412Z,100948.78
2023-04-30T22:13:28.756Z,100947.03
2023-04-30T22:15:56.778Z,100946.09
2023-04-30T22:18:24.702Z,100940.03
2023-04-30T22:20:52.310Z,100940.91
2023-04-30T22:23:23.201Z,100940.91
2023-04-30T22:25:50.842Z,100946.97
2023-04-30T22:28:23.504Z,100939.16
2023-04-30T22:30:51.259Z,100940.88
2023-04-30T22:33:18.967Z,100937.44
2023-04-30T22:35:46.899Z,100944.34
2023-04-30T22:38:14.404Z,100947.78
2023-04-30T22:40:41.996Z,100937.34
2023-04-30T22:43:10.066Z,100938.22
2023-04-30T22:45:38.185Z,100940.84
2023-04-30T22:48:07.262Z,100953.91
2023-04-30T22:50:34.872Z,100943.47
2023-04-30T22:53:02.844Z,100947.81
2023-04-30T22:55:31.776Z,100939.13
2023-04-30T22:58:00.955Z,100941.72
2023-04-30T23:00:28.925Z,100943.41
2023-04-30T23:02:56.718Z,100937.34
2023-04-30T23:05:24.593Z,100937.34
2023-04-30T23:07:52.360Z,100940.78
2023-04-30T23:10:20.247Z,100941.66
2023-04-30T23:12:48.031Z,100936.44
2023-04-30T23:15:16.116Z,100944.31
2023-04-30T23:17:44.212Z,100936.47
2023-04-30T23:20:12.430Z,100942.53
2023-04-30T23:22:40.312Z,100938.19
2023-04-30T23:25:09.517Z,100936.41
2023-04-30T23:27:37.362Z,100938.22
2023-04-30T23:30:08.178Z,100938.19
2023-04-30T23:32:36.143Z,100938.16
2023-04-30T23:35:04.385Z,100937.31
2023-04-30T23:37:32.232Z,100939.94
2023-04-30T23:40:00.883Z,100939.09
2023-04-30T23:42:28.287Z,100933.00
2023-04-30T23:44:56.269Z,100932.97
2023-04-30T23:47:24.103Z,100936.41
2023-04-30T23:49:52.273Z,100931.22
2023-04-30T23:52:20.108Z,100928.59
2023-04-30T23:54:48.002Z,100922.47
2023-04-30T23:57:15.472Z,100924.19
2023-04-30T23:59:43.876Z,100928.47
